createdAt,value
2022-12-29T00:00:15.855Z,17.90
2022-12-29T00:01:19.156Z,18.50
2022-12-29T00:02:22.087Z,17.95
2022-12-29T00:03:25.140Z,17.42
2022-12-29T00:04:28.641Z,17.48
2022-12-29T00:05:31.458Z,17.83
2022-12-29T00:06:34.725Z,18.58
2022-12-29T00:07:37.966Z,17.23
2022-12-29T00:08:41.419Z,18.27
2022-12-29T00:09:45.588Z,16.87
2022-12-29T00:10:48.716Z,17.12
2022-12-29T00:11:51.887Z,16.90
2022-12-29T00:13:13.909Z,17.48
2022-12-29T00:14:35.375Z,17.12
2022-12-29T00:15:38.245Z,16.37
2022-12-29T00:16:44.032Z,17.40
2022-12-29T00:17:47.486Z,16.23
2022-12-29T00:18:50.854Z,16.65
2022-12-29T00:20:12.978Z,16.63
2022-12-29T00:21:38.081Z,17.27
2022-12-29T00:22:59.502Z,16.62
2022-12-29T00:24:21.707Z,16.83
2022-12-29T00:25:43.858Z,16.37
2022-12-29T00:27:08.371Z,17.98
2022-12-29T00:28:29.869Z,16.42
2022-12-29T00:29:52.207Z,18.05
2022-12-29T00:31:18.153Z,16.35
2022-12-29T00:32:40.091Z,17.52
2022-12-29T00:34:02.130Z,17.23
2022-12-29T00:35:11.648Z,17.65
2022-12-29T00:36:26.622Z,18.02
2022-12-29T00:37:50.041Z,17.98
2022-12-29T00:39:20.156Z,17.05
2022-12-29T00:41:02.146Z,16.67
2022-12-29T00:42:28.719Z,17.27
2022-12-29T00:43:50.477Z,16.70
2022-12-29T00:44:53.487Z,15.75
2022-12-29T00:45:57.313Z,16.77
2022-12-29T00:47:05.414Z,18.03
2022-12-29T00:48:08.650Z,17.42
2022-12-29T00:49:32.933Z,17.40
2022-12-29T00:50:36.520Z,16.75
2022-12-29T00:51:40.297Z,17.37
2022-12-29T00:52:43.211Z,16.85
2022-12-29T00:53:46.940Z,16.87
2022-12-29T00:54:49.766Z,17.77
2022-12-29T00:55:52.700Z,16.87
2022-12-29T00:56:57.771Z,18.42
2022-12-29T00:58:00.790Z,16.80
2022-12-29T00:59:06.249Z,17.23
2022-12-29T01:00:11.665Z,17.30
2022-12-29T01:01:14.778Z,17.42
2022-12-29T01:02:18.777Z,18.20
2022-12-29T01:03:23.453Z,17.15
2022-12-29T01:04:27.764Z,15.98
2022-12-29T01:05:30.649Z,17.48
2022-12-29T01:06:35.985Z,17.02
2022-12-29T01:07:39.667Z,17.08
2022-12-29T01:08:42.473Z,17.17
2022-12-29T01:10:05.178Z,16.42
2022-12-29T01:11:10.962Z,17.40
2022-12-29T01:12:14.779Z,16.35
2022-12-29T01:13:18.020Z,16.98
2022-12-29T01:14:21.583Z,17.87
2022-12-29T01:15:25.792Z,17.05
2022-12-29T01:16:28.826Z,17.60
2022-12-29T01:17:31.804Z,17.23
2022-12-29T01:18:34.930Z,17.58
2022-12-29T01:19:38.414Z,16.07
2022-12-29T01:20:41.752Z,17.35
2022-12-29T01:21:44.873Z,16.77
2022-12-29T01:22:50.632Z,17.17
2022-12-29T01:23:56.115Z,16.35
2022-12-29T01:24:59.066Z,16.62
2022-12-29T01:26:13.732Z,16.23
2022-12-29T01:27:17.455Z,18.80
2022-12-29T01:28:25.892Z,18.20
2022-12-29T01:29:29.729Z,17.00
2022-12-29T01:30:33.777Z,17.70
2022-12-29T01:31:37.236Z,17.60
2022-12-29T01:32:40.239Z,18.23
2022-12-29T01:33:43.986Z,16.42
2022-12-29T01:34:48.232Z,16.40
2022-12-29T01:35:51.211Z,17.35
2022-12-29T01:36:55.741Z,15.80
2022-12-29T01:37:59.107Z,17.30
2022-12-29T01:39:02.557Z,17.45
2022-12-29T01:40:07.488Z,17.60
2022-12-29T01:41:13.929Z,16.83
2022-12-29T01:42:19.367Z,17.70
2022-12-29T01:43:22.423Z,15.98
2022-12-29T01:45:09.550Z,17.55
2022-12-29T01:46:40.237Z,19.10
2022-12-29T01:47:49.152Z,19.55
2022-12-29T01:49:00.559Z,20.37
2022-12-29T01:50:21.617Z,21.73
2022-12-29T01:51:30.988Z,19.17
2022-12-29T01:52:38.759Z,18.15
2022-12-29T01:53:41.838Z,16.20
2022-12-29T01:54:51.664Z,17.33
2022-12-29T01:55:59.962Z,17.87
2022-12-29T01:57:11.792Z,17.23
2022-12-29T01:58:19.253Z,17.80
2022-12-29T01:59:27.269Z,18.05
2022-12-29T02:00:30.654Z,18.42
2022-12-29T02:01:34.268Z,20.60
2022-12-29T02:02:38.689Z,20.73
2022-12-29T02:03:42.389Z,22.45
2022-12-29T02:04:45.801Z,24.27
2022-12-29T02:06:03.487Z,27.65
2022-12-29T02:07:13.656Z,26.60
2022-12-29T02:08:16.608Z,24.17
2022-12-29T02:09:20.391Z,22.95
2022-12-29T02:10:25.838Z,20.92
2022-12-29T02:11:31.104Z,21.40
2022-12-29T02:12:35.147Z,20.27
2022-12-29T02:13:38.319Z,18.80
2022-12-29T02:14:41.324Z,17.58
2022-12-29T02:15:50.478Z,16.53
2022-12-29T02:17:05.944Z,16.23
2022-12-29T02:18:47.626Z,18.37
2022-12-29T02:19:56.234Z,17.50
2022-12-29T02:21:39.203Z,16.77
2022-12-29T02:23:02.314Z,16.15
2022-12-29T02:24:32.241Z,16.62
2022-12-29T02:25:53.888Z,21.15
2022-12-29T02:27:31.621Z,23.80
2022-12-29T02:28:43.643Z,21.83
2022-12-29T02:30:19.272Z,19.33
2022-12-29T02:31:30.004Z,23.02
2022-12-29T02:32:58.126Z,22.25
2022-12-29T02:34:01.003Z,19.75
2022-12-29T02:35:32.491Z,20.98
2022-12-29T02:37:00.714Z,19.73
2022-12-29T02:38:41.575Z,18.75
2022-12-29T02:40:29.110Z,22.98
2022-12-29T02:42:02.336Z,23.25
2022-12-29T02:43:41.453Z,21.42
2022-12-29T02:44:44.738Z,15.73
2022-12-29T02:46:05.565Z,16.37
2022-12-29T02:47:11.650Z,16.35
2022-12-29T02:48:43.611Z,16.35
2022-12-29T02:50:01.061Z,18.08
2022-12-29T02:51:08.514Z,17.17
2022-12-29T02:52:19.217Z,17.02
2022-12-29T02:53:42.917Z,17.48
2022-12-29T02:54:48.551Z,18.58
2022-12-29T02:55:52.569Z,17.85
2022-12-29T02:56:56.009Z,18.07
2022-12-29T02:58:17.215Z,18.02
2022-12-29T02:59:21.828Z,17.80
2022-12-29T03:00:25.131Z,18.12
2022-12-29T03:02:23.460Z,19.42
2022-12-29T03:03:37.446Z,17.30
2022-12-29T03:05:06.678Z,17.15
2022-12-29T03:06:29.974Z,17.67
2022-12-29T03:07:45.706Z,15.73
2022-12-29T03:09:21.232Z,16.67
2022-12-29T03:10:30.140Z,15.57
2022-12-29T03:12:02.388Z,16.35
2022-12-29T03:13:32.619Z,16.20
2022-12-29T03:15:28.130Z,18.05
2022-12-29T03:16:48.789Z,20.35
2022-12-29T03:18:06.808Z,21.15
2022-12-29T03:19:22.907Z,20.35
2022-12-29T03:20:32.541Z,20.80
2022-12-29T03:22:32.479Z,23.90
2022-12-29T03:23:38.062Z,21.10
2022-12-29T03:24:51.453Z,21.80
2022-12-29T03:25:59.743Z,19.50
2022-12-29T03:27:07.585Z,19.83
2022-12-29T03:28:26.852Z,20.45
2022-12-29T03:29:34.153Z,18.12
2022-12-29T03:30:41.012Z,18.58
2022-12-29T03:31:45.777Z,19.77
2022-12-29T03:32:56.797Z,18.67
2022-12-29T03:34:00.809Z,19.58
2022-12-29T03:35:06.757Z,21.35
2022-12-29T03:36:15.242Z,20.90
2022-12-29T03:37:23.539Z,20.48
2022-12-29T03:38:48.055Z,20.67
2022-12-29T03:39:51.084Z,20.88
2022-12-29T03:40:59.682Z,18.98
2022-12-29T03:42:06.250Z,19.33
2022-12-29T03:43:12.790Z,20.08
2022-12-29T03:44:16.088Z,19.42
2022-12-29T03:45:21.130Z,18.87
2022-12-29T03:46:24.028Z,20.62
2022-12-29T03:47:27.535Z,19.57
2022-12-29T03:48:30.876Z,18.25
2022-12-29T03:49:34.348Z,17.80
2022-12-29T03:50:39.845Z,19.85
2022-12-29T03:51:43.055Z,19.87
2022-12-29T03:52:46.011Z,19.25
2022-12-29T03:53:49.231Z,18.87
2022-12-29T03:54:52.628Z,23.08
2022-12-29T03:55:55.877Z,25.42
2022-12-29T03:56:59.141Z,25.98
2022-12-29T03:58:04.708Z,24.47
2022-12-29T03:59:08.514Z,26.23
2022-12-29T04:00:14.316Z,25.08
2022-12-29T04:01:18.434Z,22.35
2022-12-29T04:02:22.163Z,24.12
2022-12-29T04:03:25.306Z,24.17
2022-12-29T04:04:28.353Z,22.17
2022-12-29T04:05:32.350Z,20.48
2022-12-29T04:06:35.840Z,18.33
2022-12-29T04:07:39.395Z,19.20
2022-12-29T04:08:42.691Z,18.37
2022-12-29T04:09:46.037Z,18.27
2022-12-29T04:10:50.773Z,19.17
2022-12-29T04:11:54.039Z,17.37
2022-12-29T04:12:58.317Z,20.00
2022-12-29T04:14:02.028Z,18.17
2022-12-29T04:15:06.916Z,16.70
2022-12-29T04:16:10.553Z,18.48
2022-12-29T04:17:13.657Z,18.23
2022-12-29T04:18:17.943Z,17.87
2022-12-29T04:19:21.905Z,17.70
2022-12-29T04:20:43.942Z,17.58
2022-12-29T04:21:46.897Z,17.02
2022-12-29T04:22:57.947Z,17.42
2022-12-29T04:24:01.278Z,18.58
2022-12-29T04:25:04.608Z,19.70
2022-12-29T04:26:10.145Z,17.35
2022-12-29T04:27:14.669Z,18.85
2022-12-29T04:28:17.985Z,19.20
2022-12-29T04:29:22.542Z,18.35
2022-12-29T04:30:26.500Z,18.40
2022-12-29T04:31:29.901Z,18.52
2022-12-29T04:32:32.833Z,17.35
2022-12-29T04:33:36.264Z,17.73
2022-12-29T04:34:39.452Z,18.08
2022-12-29T04:35:44.039Z,19.83
2022-12-29T04:36:48.019Z,17.30
2022-12-29T04:37:51.299Z,18.55
2022-12-29T04:38:54.300Z,19.08
2022-12-29T04:39:57.439Z,20.50
2022-12-29T04:41:01.927Z,19.03
2022-12-29T04:42:05.024Z,19.00
2022-12-29T04:43:08.924Z,18.08
2022-12-29T04:44:12.755Z,19.25
2022-12-29T04:45:16.145Z,19.23
2022-12-29T04:46:20.591Z,19.60
2022-12-29T04:47:24.325Z,18.95
2022-12-29T04:48:27.743Z,19.35
2022-12-29T04:49:31.527Z,18.83
2022-12-29T04:50:36.263Z,19.27
2022-12-29T04:51:40.821Z,19.77
2022-12-29T04:52:44.163Z,19.87
2022-12-29T04:53:47.207Z,19.35
2022-12-29T04:54:50.606Z,19.67
2022-12-29T04:55:54.424Z,20.37
2022-12-29T04:56:58.409Z,22.05
2022-12-29T04:58:01.326Z,26.73
2022-12-29T04:59:05.625Z,22.60
2022-12-29T05:00:10.251Z,20.88
2022-12-29T05:01:14.160Z,23.05
2022-12-29T05:02:18.715Z,20.77
2022-12-29T05:03:22.709Z,19.20
2022-12-29T05:04:26.082Z,19.83
2022-12-29T05:05:29.670Z,19.90
2022-12-29T05:06:33.469Z,22.62
2022-12-29T05:07:37.875Z,19.77
2022-12-29T05:08:41.240Z,18.83
2022-12-29T05:09:44.059Z,19.75
2022-12-29T05:10:47.355Z,19.42
2022-12-29T05:11:51.452Z,18.65
2022-12-29T05:12:54.413Z,18.87
2022-12-29T05:13:57.401Z,18.75
2022-12-29T05:15:00.714Z,20.73
2022-12-29T05:16:03.789Z,37.33
2022-12-29T05:17:06.970Z,53.20
2022-12-29T05:18:10.756Z,64.50
2022-12-29T05:19:14.126Z,30.05
2022-12-29T05:20:17.510Z,33.50
2022-12-29T05:21:20.565Z,33.35
2022-12-29T05:22:25.185Z,20.45
2022-12-29T05:23:28.794Z,42.93
2022-12-29T05:24:31.941Z,29.58
2022-12-29T05:25:35.320Z,30.58
2022-12-29T05:26:39.639Z,26.00
2022-12-29T05:27:43.223Z,36.42
2022-12-29T05:28:47.350Z,23.15
2022-12-29T05:29:50.873Z,20.70
2022-12-29T05:30:54.282Z,19.58
2022-12-29T05:31:57.680Z,20.58
2022-12-29T05:33:01.500Z,20.60
2022-12-29T05:34:04.886Z,20.43
2022-12-29T05:35:08.499Z,22.23
2022-12-29T05:36:12.392Z,23.73
2022-12-29T05:37:15.783Z,22.95
2022-12-29T05:38:19.150Z,22.95
2022-12-29T05:39:22.672Z,23.33
2022-12-29T05:40:26.630Z,20.75
2022-12-29T05:41:31.988Z,21.35
2022-12-29T05:42:36.999Z,22.15
2022-12-29T05:43:40.797Z,23.65
2022-12-29T05:44:44.104Z,25.87
2022-12-29T05:45:50.838Z,31.17
2022-12-29T05:46:55.866Z,25.10
2022-12-29T05:48:01.160Z,26.98
2022-12-29T05:49:04.850Z,27.20
2022-12-29T05:50:08.993Z,25.25
2022-12-29T05:51:15.279Z,26.12
2022-12-29T05:52:20.293Z,36.45
2022-12-29T05:53:24.041Z,33.25
2022-12-29T05:54:27.367Z,31.90
2022-12-29T05:55:30.535Z,37.93
2022-12-29T05:56:33.664Z,61.17
2022-12-29T05:57:37.867Z,28.42
2022-12-29T05:58:41.152Z,26.15
2022-12-29T05:59:44.494Z,26.90
2022-12-29T06:00:47.909Z,29.12
2022-12-29T06:01:51.192Z,29.30
2022-12-29T06:02:54.153Z,27.52
2022-12-29T06:03:57.977Z,25.88
2022-12-29T06:05:01.541Z,26.30
2022-12-29T06:06:05.081Z,25.20
2022-12-29T06:07:08.988Z,26.05
2022-12-29T06:08:12.091Z,28.52
2022-12-29T06:09:15.028Z,28.77
2022-12-29T06:10:19.506Z,25.70
2022-12-29T06:11:23.060Z,27.80
2022-12-29T06:12:26.916Z,37.55
2022-12-29T06:13:30.338Z,42.15
2022-12-29T06:14:33.777Z,38.00
2022-12-29T06:15:37.372Z,44.00
2022-12-29T06:16:42.996Z,38.13
2022-12-29T06:17:47.960Z,34.13
2022-12-29T06:18:51.629Z,28.00
2022-12-29T06:19:54.484Z,23.27
2022-12-29T06:21:02.174Z,22.23
2022-12-29T06:22:05.885Z,21.05
2022-12-29T06:23:09.971Z,21.45
2022-12-29T06:24:13.423Z,22.50
2022-12-29T06:25:17.254Z,22.90
2022-12-29T06:26:20.407Z,23.75
2022-12-29T06:27:24.477Z,21.90
2022-12-29T06:28:28.514Z,23.25
2022-12-29T06:29:31.716Z,23.90
2022-12-29T06:30:34.785Z,25.02
2022-12-29T06:31:38.637Z,30.15
2022-12-29T06:32:41.890Z,34.53
2022-12-29T06:33:49.982Z,70.53
2022-12-29T06:34:53.678Z,48.35
2022-12-29T06:35:56.660Z,53.67
2022-12-29T06:36:59.894Z,35.55
2022-12-29T06:38:05.336Z,36.47
2022-12-29T06:39:12.835Z,71.50
2022-12-29T06:40:16.455Z,78.57
2022-12-29T06:41:24.584Z,68.53
2022-12-29T06:42:32.612Z,61.20
2022-12-29T06:43:39.506Z,62.08
2022-12-29T06:44:44.184Z,64.65
2022-12-29T06:45:47.765Z,68.32
2022-12-29T06:46:51.181Z,78.47
2022-12-29T06:47:54.472Z,70.78
2022-12-29T06:48:57.432Z,77.70
2022-12-29T06:50:01.610Z,63.30
2022-12-29T06:51:05.051Z,52.62
2022-12-29T06:52:12.726Z,44.25
2022-12-29T06:53:16.578Z,29.87
2022-12-29T06:54:19.584Z,38.88
2022-12-29T06:55:23.521Z,77.55
2022-12-29T06:56:26.766Z,67.62
2022-12-29T06:57:29.947Z,105.70
2022-12-29T06:58:32.920Z,98.87
2022-12-29T06:59:36.296Z,75.40
2022-12-29T07:00:40.765Z,42.88
2022-12-29T07:01:43.753Z,32.58
2022-12-29T07:02:46.902Z,34.72
2022-12-29T07:03:50.175Z,36.08
2022-12-29T07:04:53.745Z,48.13
2022-12-29T07:05:59.100Z,49.55
2022-12-29T07:07:02.684Z,50.47
2022-12-29T07:08:06.084Z,49.45
2022-12-29T07:09:10.115Z,48.08
2022-12-29T07:10:13.379Z,41.90
2022-12-29T07:11:17.352Z,39.75
2022-12-29T07:12:20.517Z,33.30
2022-12-29T07:13:23.384Z,30.85
2022-12-29T07:14:27.062Z,30.48
2022-12-29T07:15:30.485Z,33.45
2022-12-29T07:16:35.398Z,52.25
2022-12-29T07:17:38.421Z,49.42
2022-12-29T07:18:41.829Z,38.25
2022-12-29T07:19:45.866Z,30.80
2022-12-29T07:20:49.215Z,26.00
2022-12-29T07:21:55.209Z,25.75
2022-12-29T07:22:58.290Z,25.15
2022-12-29T07:24:01.000Z,26.37
2022-12-29T07:25:04.603Z,28.17
2022-12-29T07:26:10.820Z,27.70
2022-12-29T07:27:14.558Z,30.05
2022-12-29T07:28:18.060Z,32.10
2022-12-29T07:29:20.919Z,32.45
2022-12-29T07:30:23.906Z,33.63
2022-12-29T07:31:27.356Z,37.63
2022-12-29T07:32:33.924Z,36.90
2022-12-29T07:33:36.925Z,33.55
2022-12-29T07:34:40.828Z,40.03
2022-12-29T07:35:44.208Z,41.10
2022-12-29T07:36:47.038Z,41.55
2022-12-29T07:37:50.616Z,35.40
2022-12-29T07:38:53.919Z,32.03
2022-12-29T07:39:56.764Z,34.28
2022-12-29T07:41:00.160Z,35.63
2022-12-29T07:42:05.317Z,38.93
2022-12-29T07:43:13.092Z,34.22
2022-12-29T07:44:16.267Z,33.80
2022-12-29T07:45:21.658Z,55.25
2022-12-29T07:46:54.084Z,72.82
2022-12-29T07:47:51.624Z,70.80
2022-12-29T07:48:54.893Z,62.45
2022-12-29T07:49:58.223Z,47.28
2022-12-29T07:51:01.052Z,46.00
2022-12-29T07:52:04.622Z,39.83
2022-12-29T07:53:07.685Z,35.67
2022-12-29T07:54:13.144Z,35.15
2022-12-29T07:55:17.352Z,31.80
2022-12-29T07:56:20.268Z,30.95
2022-12-29T07:57:29.670Z,32.53
2022-12-29T07:58:34.716Z,35.13
2022-12-29T07:59:37.967Z,35.28
2022-12-29T08:00:41.135Z,33.50
2022-12-29T08:01:44.471Z,33.92
2022-12-29T08:02:47.595Z,34.97
2022-12-29T08:03:56.869Z,33.57
2022-12-29T08:05:00.252Z,34.80
2022-12-29T08:06:03.727Z,34.20
2022-12-29T08:07:07.003Z,33.40
2022-12-29T08:08:10.284Z,33.05
2022-12-29T08:09:19.613Z,33.05
2022-12-29T08:10:25.604Z,29.05
2022-12-29T08:11:29.112Z,29.58
2022-12-29T08:12:32.350Z,27.10
2022-12-29T08:13:35.229Z,26.23
2022-12-29T08:14:38.567Z,25.23
2022-12-29T08:15:41.521Z,27.23
2022-12-29T08:16:44.906Z,26.92
2022-12-29T08:17:48.328Z,28.17
2022-12-29T08:18:51.707Z,28.83
2022-12-29T08:19:54.554Z,25.90
2022-12-29T08:21:02.980Z,26.00
2022-12-29T08:22:06.097Z,22.80
2022-12-29T08:23:09.166Z,24.70
2022-12-29T08:24:12.154Z,23.00
2022-12-29T08:25:16.104Z,22.43
2022-12-29T08:26:18.884Z,27.55
2022-12-29T08:27:23.524Z,23.67
2022-12-29T08:28:27.676Z,25.67
2022-12-29T08:29:30.895Z,26.55
2022-12-29T08:30:33.852Z,26.77
2022-12-29T08:31:37.480Z,25.62
2022-12-29T08:32:40.816Z,26.05
2022-12-29T08:33:43.917Z,26.02
2022-12-29T08:34:46.869Z,27.08
2022-12-29T08:35:50.839Z,25.87
2022-12-29T08:36:53.595Z,24.15
2022-12-29T08:37:56.351Z,28.00
2022-12-29T08:38:59.926Z,29.42
2022-12-29T08:40:04.920Z,25.50
2022-12-29T08:41:07.829Z,25.33
2022-12-29T08:42:10.589Z,26.33
2022-12-29T08:43:15.503Z,26.60
2022-12-29T08:44:21.849Z,29.37
2022-12-29T08:45:24.527Z,30.23
2022-12-29T08:46:27.823Z,34.17
2022-12-29T08:47:30.617Z,41.10
2022-12-29T08:48:33.399Z,43.72
2022-12-29T08:49:36.436Z,45.67
2022-12-29T08:50:39.701Z,40.80
2022-12-29T08:51:42.473Z,76.65
2022-12-29T08:52:45.342Z,67.22
2022-12-29T08:53:48.634Z,72.00
2022-12-29T08:54:51.659Z,70.75
2022-12-29T08:56:04.027Z,39.15
2022-12-29T08:57:10.761Z,38.07
2022-12-29T08:58:15.732Z,44.05
2022-12-29T08:59:18.888Z,34.33
2022-12-29T09:00:23.846Z,34.33
2022-12-29T09:01:27.117Z,32.50
2022-12-29T09:02:30.157Z,27.10
2022-12-29T09:04:58.469Z,24.52
2022-12-29T09:06:01.596Z,26.45
2022-12-29T09:07:04.759Z,27.50
2022-12-29T09:08:07.859Z,22.20
2022-12-29T09:09:10.632Z,24.40
2022-12-29T09:10:13.610Z,27.52
2022-12-29T09:11:23.117Z,27.15
2022-12-29T09:12:28.198Z,28.58
2022-12-29T09:13:34.494Z,36.38
2022-12-29T09:14:37.369Z,22.05
2022-12-29T09:15:41.141Z,46.00
2022-12-29T09:17:02.696Z,28.80
2022-12-29T09:18:06.778Z,24.35
2022-12-29T09:19:13.217Z,30.50
2022-12-29T09:20:23.178Z,35.60
2022-12-29T09:21:27.426Z,39.67
2022-12-29T09:22:30.690Z,31.15
2022-12-29T09:23:34.772Z,39.40
2022-12-29T09:24:37.509Z,32.00
2022-12-29T09:25:40.146Z,35.08
2022-12-29T09:26:46.984Z,39.17
2022-12-29T09:27:50.259Z,26.75
2022-12-29T09:28:53.558Z,52.65
2022-12-29T09:29:57.134Z,58.67
2022-12-29T09:31:01.326Z,26.20
2022-12-29T09:32:07.682Z,23.40
2022-12-29T09:33:10.991Z,22.95
2022-12-29T09:34:14.503Z,27.75
2022-12-29T09:35:17.944Z,28.08
2022-12-29T09:36:20.627Z,27.27
2022-12-29T09:37:23.312Z,29.48
2022-12-29T09:38:28.726Z,32.83
2022-12-29T09:39:31.793Z,26.92
2022-12-29T09:40:35.593Z,32.53
2022-12-29T09:41:53.244Z,28.67
2022-12-29T09:43:44.024Z,31.27
2022-12-29T09:45:11.775Z,31.90
2022-12-29T09:46:29.909Z,31.45
2022-12-29T09:47:32.724Z,28.52
2022-12-29T09:48:42.908Z,28.67
2022-12-29T09:50:01.188Z,32.05
2022-12-29T09:51:11.602Z,33.75
2022-12-29T09:52:20.993Z,31.27
2022-12-29T09:54:06.222Z,31.93
2022-12-29T09:55:18.458Z,26.60
2022-12-29T09:56:24.604Z,27.35
2022-12-29T09:57:44.252Z,25.17
2022-12-29T09:59:03.203Z,25.40
2022-12-29T10:00:15.214Z,28.20
2022-12-29T10:01:29.724Z,24.15
2022-12-29T10:02:54.654Z,25.77
2022-12-29T10:03:59.575Z,23.08
2022-12-29T10:05:02.798Z,28.80
2022-12-29T10:07:27.425Z,25.67
2022-12-29T10:08:31.012Z,23.17
2022-12-29T10:09:33.720Z,21.58
2022-12-29T10:10:41.747Z,24.55
2022-12-29T10:12:20.397Z,31.05
2022-12-29T10:13:52.503Z,26.35
2022-12-29T10:15:11.920Z,23.77
2022-12-29T10:16:41.462Z,24.52
2022-12-29T10:18:16.895Z,28.40
2022-12-29T10:20:03.350Z,31.95
2022-12-29T10:21:09.837Z,23.17
2022-12-29T10:22:32.727Z,31.35
2022-12-29T10:23:42.968Z,25.90
2022-12-29T10:24:51.064Z,24.45
2022-12-29T10:25:59.475Z,24.02
2022-12-29T10:27:03.371Z,28.20
2022-12-29T10:28:27.874Z,31.33
2022-12-29T10:29:56.108Z,24.15
2022-12-29T10:31:08.319Z,24.58
2022-12-29T10:32:25.161Z,28.27
2022-12-29T10:33:37.830Z,25.37
2022-12-29T10:34:56.774Z,22.92
2022-12-29T10:36:25.396Z,28.02
2022-12-29T10:37:40.621Z,30.05
2022-12-29T10:39:00.450Z,22.75
2022-12-29T10:40:19.346Z,21.98
2022-12-29T10:41:29.266Z,23.30
2022-12-29T10:42:41.676Z,19.58
2022-12-29T10:43:50.091Z,21.33
2022-12-29T10:44:54.500Z,20.02
2022-12-29T10:46:02.727Z,22.37
2022-12-29T10:47:16.030Z,22.58
2022-12-29T10:48:28.648Z,19.65
2022-12-29T10:49:41.498Z,21.25
2022-12-29T10:50:44.899Z,23.00
2022-12-29T10:51:53.245Z,23.65
2022-12-29T10:52:59.880Z,21.30
2022-12-29T10:54:15.908Z,19.35
2022-12-29T10:55:31.838Z,21.37
2022-12-29T10:56:36.087Z,23.60
2022-12-29T10:57:45.391Z,21.53
2022-12-29T10:58:51.227Z,20.02
2022-12-29T10:59:54.158Z,18.50
2022-12-29T11:00:57.347Z,22.35
2022-12-29T11:02:07.303Z,27.05
2022-12-29T11:03:28.955Z,43.72
2022-12-29T11:05:03.177Z,31.10
2022-12-29T11:06:25.157Z,33.40
2022-12-29T11:07:27.961Z,25.15
2022-12-29T11:08:53.563Z,24.15
2022-12-29T11:10:00.861Z,24.73
2022-12-29T11:11:09.638Z,33.63
2022-12-29T11:12:30.609Z,33.00
2022-12-29T11:13:39.232Z,29.87
2022-12-29T11:14:42.811Z,29.90
2022-12-29T11:15:48.274Z,33.60
2022-12-29T11:17:03.073Z,35.92
2022-12-29T11:18:05.807Z,35.83
2022-12-29T11:19:27.120Z,39.90
2022-12-29T11:20:38.746Z,70.47
2022-12-29T11:21:43.197Z,52.07
2022-12-29T11:22:46.644Z,57.88
2022-12-29T11:23:58.675Z,38.03
2022-12-29T11:25:13.785Z,32.95
2022-12-29T11:26:33.526Z,27.65
2022-12-29T11:27:37.429Z,27.90
2022-12-29T11:28:42.639Z,38.78
2022-12-29T11:29:45.672Z,28.27
2022-12-29T11:31:00.671Z,22.10
2022-12-29T11:32:31.970Z,29.65
2022-12-29T11:33:40.484Z,21.57
2022-12-29T11:34:43.256Z,40.57
2022-12-29T11:35:46.079Z,35.40
2022-12-29T11:36:51.142Z,23.15
2022-12-29T11:37:58.895Z,25.02
2022-12-29T11:39:05.624Z,21.62
2022-12-29T11:40:22.765Z,30.42
2022-12-29T11:41:30.905Z,36.20
2022-12-29T11:42:48.833Z,31.20
2022-12-29T11:43:52.650Z,27.58
2022-12-29T11:44:56.346Z,27.63
2022-12-29T11:45:59.539Z,25.90
2022-12-29T11:47:02.685Z,22.95
2022-12-29T11:48:20.996Z,22.08
2022-12-29T11:49:27.698Z,25.62
2022-12-29T11:50:33.915Z,30.83
2022-12-29T11:51:48.510Z,27.02
2022-12-29T11:52:59.579Z,27.08
2022-12-29T11:54:05.166Z,24.48
2022-12-29T11:55:19.823Z,23.87
2022-12-29T11:56:41.144Z,22.03
2022-12-29T11:57:45.787Z,30.45
2022-12-29T11:58:50.946Z,24.42
2022-12-29T11:59:57.163Z,24.30
2022-12-29T12:01:20.860Z,27.10
2022-12-29T12:02:45.841Z,21.10
2022-12-29T12:04:00.437Z,63.70
2022-12-29T12:05:23.270Z,54.42
2022-12-29T12:06:28.654Z,86.75
2022-12-29T12:07:45.557Z,28.50
2022-12-29T12:08:57.267Z,24.07
2022-12-29T12:10:07.883Z,32.80
2022-12-29T12:11:19.921Z,24.17
2022-12-29T12:12:32.231Z,28.35
2022-12-29T12:13:56.937Z,39.28
2022-12-29T12:15:04.608Z,63.65
2022-12-29T12:16:22.332Z,55.78
2022-12-29T12:17:38.605Z,65.82
2022-12-29T12:18:51.059Z,52.22
2022-12-29T12:20:16.052Z,41.15
2022-12-29T12:21:34.400Z,29.73
2022-12-29T12:22:44.247Z,24.98
2022-12-29T12:24:14.615Z,28.67
2022-12-29T12:25:56.859Z,27.30
2022-12-29T12:27:12.329Z,27.13
2022-12-29T12:28:30.536Z,37.78
2022-12-29T12:29:47.998Z,32.70
2022-12-29T12:30:56.628Z,26.37
2022-12-29T12:32:14.716Z,32.97
2022-12-29T12:33:26.263Z,87.62
2022-12-29T12:34:39.227Z,48.83
2022-12-29T12:36:04.275Z,67.00
2022-12-29T12:37:13.091Z,44.47
2022-12-29T12:38:21.871Z,58.58
2022-12-29T12:39:31.966Z,50.20
2022-12-29T12:41:04.589Z,60.65
2022-12-29T12:42:39.574Z,61.47
2022-12-29T12:43:47.944Z,50.45
2022-12-29T12:44:58.114Z,42.83
2022-12-29T12:46:28.845Z,42.75
2022-12-29T12:47:51.816Z,33.73
2022-12-29T12:49:31.790Z,32.65
2022-12-29T12:50:40.415Z,42.67
2022-12-29T12:51:59.469Z,38.47
2022-12-29T12:53:13.679Z,29.40
2022-12-29T12:54:58.916Z,27.33
2022-12-29T12:56:24.790Z,25.30
2022-12-29T12:58:01.482Z,27.00
2022-12-29T12:59:17.201Z,25.58
2022-12-29T13:00:21.080Z,27.33
2022-12-29T13:01:49.688Z,30.40
2022-12-29T13:03:19.411Z,45.28
2022-12-29T13:04:47.599Z,37.72
2022-12-29T13:06:08.581Z,49.22
2022-12-29T13:07:40.152Z,32.83
2022-12-29T13:09:12.183Z,42.72
2022-12-29T13:10:18.719Z,31.30
2022-12-29T13:11:30.548Z,27.40
2022-12-29T13:12:47.952Z,29.70
2022-12-29T13:14:01.973Z,27.25
2022-12-29T13:15:10.940Z,32.10
2022-12-29T13:16:14.865Z,39.67
2022-12-29T13:17:27.116Z,34.22
2022-12-29T13:18:38.871Z,53.33
2022-12-29T13:19:50.160Z,34.15
2022-12-29T13:22:00.193Z,34.75
2022-12-29T13:23:34.957Z,33.92
2022-12-29T13:24:49.201Z,39.85
2022-12-29T13:26:01.409Z,63.97
2022-12-29T13:27:38.765Z,43.80
2022-12-29T13:28:55.852Z,43.40
2022-12-29T13:30:10.786Z,52.58
2022-12-29T13:31:18.721Z,37.03
2022-12-29T13:32:55.106Z,43.83
2022-12-29T13:34:21.836Z,44.67
2022-12-29T13:35:43.296Z,37.55
2022-12-29T13:36:57.331Z,35.78
2022-12-29T13:38:17.144Z,42.35
2022-12-29T13:39:29.245Z,51.42
2022-12-29T13:40:40.443Z,44.40
2022-12-29T13:41:51.968Z,39.13
2022-12-29T13:42:56.650Z,55.55
2022-12-29T13:44:02.958Z,48.80
2022-12-29T13:45:18.131Z,46.30
2022-12-29T13:46:31.120Z,46.08
2022-12-29T13:47:39.798Z,44.67
2022-12-29T13:49:01.089Z,36.80
2022-12-29T13:50:13.571Z,33.88
2022-12-29T13:51:21.393Z,32.72
2022-12-29T13:52:30.605Z,35.22
2022-12-29T13:54:12.859Z,40.50
2022-12-29T13:55:28.115Z,32.63
2022-12-29T13:57:12.066Z,29.15
2022-12-29T13:58:34.124Z,25.40
2022-12-29T13:59:51.930Z,26.67
2022-12-29T14:01:02.112Z,27.52
2022-12-29T14:02:18.227Z,27.05
2022-12-29T14:03:50.584Z,28.55
2022-12-29T14:05:02.135Z,30.23
2022-12-29T14:06:21.416Z,33.92
2022-12-29T14:07:24.896Z,31.93
2022-12-29T14:08:28.748Z,31.55
2022-12-29T14:09:42.219Z,29.92
2022-12-29T14:10:53.270Z,29.48
2022-12-29T14:11:59.313Z,28.35
2022-12-29T14:13:27.006Z,29.20
2022-12-29T14:14:32.684Z,30.55
2022-12-29T14:15:42.286Z,29.92
2022-12-29T14:16:46.933Z,29.40
2022-12-29T14:18:13.612Z,31.12
2022-12-29T14:19:25.994Z,32.47
2022-12-29T14:20:29.253Z,32.38
2022-12-29T14:21:34.426Z,41.70
2022-12-29T14:23:00.085Z,31.73
2022-12-29T14:24:41.851Z,27.77
2022-12-29T14:26:06.564Z,26.25
2022-12-29T14:27:12.240Z,31.73
2022-12-29T14:28:25.836Z,32.08
2022-12-29T14:29:32.727Z,36.03
2022-12-29T14:30:51.056Z,34.70
2022-12-29T14:31:54.544Z,35.67
2022-12-29T14:33:04.768Z,33.75
2022-12-29T14:34:07.519Z,32.10
2022-12-29T14:35:40.502Z,35.90
2022-12-29T14:37:01.219Z,34.70
2022-12-29T14:38:19.484Z,29.40
2022-12-29T14:39:36.853Z,28.10
2022-12-29T14:40:40.843Z,31.00
2022-12-29T14:41:43.622Z,33.97
2022-12-29T14:42:51.570Z,35.95
2022-12-29T14:44:08.228Z,35.83
2022-12-29T14:45:14.143Z,58.40
2022-12-29T14:46:17.468Z,43.87
2022-12-29T14:47:29.693Z,39.17
2022-12-29T14:48:43.209Z,31.42
2022-12-29T14:49:46.957Z,37.30
2022-12-29T14:50:49.836Z,33.10
2022-12-29T14:52:05.328Z,29.65
2022-12-29T14:53:45.029Z,37.78
2022-12-29T14:54:50.999Z,37.92
2022-12-29T14:55:59.069Z,31.97
2022-12-29T14:57:04.846Z,44.47
2022-12-29T14:58:17.299Z,36.70
2022-12-29T14:59:22.045Z,34.28
2022-12-29T15:00:33.771Z,34.30
2022-12-29T15:01:59.488Z,29.35